createdAt,value
2018-07-14T00:01:00.766Z,59.72
2018-07-14T00:03:30.349Z,59.73
2018-07-14T00:05:59.488Z,59.97
2018-07-14T00:08:28.559Z,60.16
2018-07-14T00:10:57.683Z,60.17
2018-07-14T00:13:26.785Z,60.60
2018-07-14T00:15:55.852Z,60.47
2018-07-14T00:18:24.967Z,61.02
2018-07-14T00:20:54.046Z,61.17
2018-07-14T00:23:23.096Z,61.06
2018-07-14T00:25:57.532Z,61.14
2018-07-14T00:28:26.597Z,61.60
2018-07-14T00:30:55.741Z,61.64
2018-07-14T00:33:24.800Z,61.79
2018-07-14T00:35:53.845Z,62.10
2018-07-14T00:38:23.237Z,62.08
2018-07-14T00:40:52.341Z,62.34
2018-07-14T00:43:21.460Z,62.44
2018-07-14T00:45:50.556Z,62.60
2018-07-14T00:48:19.662Z,62.40
2018-07-14T00:50:48.786Z,62.70
2018-07-14T00:53:17.854Z,62.94
2018-07-14T00:55:46.924Z,63.38
2018-07-14T00:58:15.994Z,63.19
2018-07-14T01:00:45.077Z,63.28
2018-07-14T01:03:14.111Z,63.75
2018-07-14T01:05:43.245Z,63.78
2018-07-14T01:08:12.283Z,63.87
2018-07-14T01:10:41.724Z,64.46
2018-07-14T01:13:10.855Z,64.30
2018-07-14T01:15:39.928Z,64.55
2018-07-14T01:18:09.052Z,64.94
2018-07-14T01:20:38.125Z,64.84
2018-07-14T01:23:07.176Z,65.06
2018-07-14T01:25:36.264Z,65.59
2018-07-14T01:28:05.573Z,65.64
2018-07-14T01:30:34.678Z,65.58
2018-07-14T01:33:03.720Z,66.23
2018-07-14T01:35:32.833Z,66.09
2018-07-14T01:38:01.898Z,66.26
2018-07-14T01:40:30.968Z,66.49
2018-07-14T01:43:00.054Z,66.77
2018-07-14T01:45:29.118Z,66.98
2018-07-14T01:47:58.224Z,67.68
2018-07-14T01:50:27.285Z,67.88
2018-07-14T01:52:56.353Z,67.84
2018-07-14T01:55:25.417Z,68.33
2018-07-14T01:57:54.544Z,68.29
2018-07-14T02:00:23.621Z,68.62
2018-07-14T02:02:52.678Z,68.97
2018-07-14T02:05:21.772Z,68.55
2018-07-14T02:07:50.832Z,69.09
2018-07-14T02:10:19.954Z,68.99
2018-07-14T02:12:49.002Z,69.57
2018-07-14T02:15:18.110Z,69.45
2018-07-14T02:17:47.212Z,69.52
2018-07-14T02:20:16.262Z,69.75
2018-07-14T02:22:45.369Z,70.13
2018-07-14T02:25:32.306Z,70.32
2018-07-14T02:28:03.648Z,70.52
2018-07-14T02:30:32.733Z,70.88
2018-07-14T02:33:01.820Z,71.29
2018-07-14T02:35:30.878Z,71.04
2018-07-14T02:37:59.964Z,71.19
2018-07-14T02:40:29.057Z,71.41
2018-07-14T02:42:58.126Z,72.01
2018-07-14T02:45:27.197Z,71.98
2018-07-14T02:47:56.258Z,72.10
2018-07-14T02:50:25.346Z,72.05
2018-07-14T02:52:54.640Z,72.36
2018-07-14T02:55:23.895Z,72.88
2018-07-14T02:57:52.935Z,73.32
2018-07-14T03:00:22.012Z,72.92
2018-07-14T03:02:51.151Z,73.93
2018-07-14T03:05:20.226Z,73.61
2018-07-14T03:07:49.281Z,73.88
2018-07-14T03:10:18.403Z,73.61
2018-07-14T03:12:47.526Z,74.29
2018-07-14T03:15:16.637Z,74.45
2018-07-14T03:17:46.113Z,74.30
2018-07-14T03:20:15.240Z,74.72
2018-07-14T03:22:44.419Z,74.75
2018-07-14T03:25:13.516Z,74.79
2018-07-14T03:27:42.635Z,74.90
2018-07-14T03:30:11.753Z,75.75
2018-07-14T03:32:40.838Z,75.42
2018-07-14T03:35:09.949Z,75.42
2018-07-14T03:37:39.020Z,75.99
2018-07-14T03:40:08.531Z,75.67
2018-07-14T03:42:38.476Z,75.89
2018-07-14T03:45:07.726Z,76.18
2018-07-14T03:47:37.021Z,76.33
2018-07-14T03:50:06.543Z,76.48
2018-07-14T03:52:36.039Z,76.50
2018-07-14T03:55:06.251Z,76.29
2018-07-14T03:57:35.324Z,76.74
2018-07-14T04:00:04.664Z,76.87
2018-07-14T04:02:33.842Z,77.03
2018-07-14T04:05:02.966Z,76.65
2018-07-14T04:07:32.817Z,77.00
2018-07-14T04:10:01.937Z,76.58
2018-07-14T04:12:31.002Z,76.94
2018-07-14T04:15:00.120Z,76.92
2018-07-14T04:17:29.278Z,76.55
2018-07-14T04:19:58.370Z,76.46
2018-07-14T04:22:27.427Z,76.48
2018-07-14T04:24:56.531Z,77.05
2018-07-14T04:27:25.636Z,76.93
2018-07-14T04:29:54.717Z,77.05
2018-07-14T04:32:23.817Z,76.61
2018-07-14T04:34:52.929Z,77.10
2018-07-14T04:37:22.028Z,76.78
2018-07-14T04:39:51.110Z,76.89
2018-07-14T04:42:20.307Z,76.13
2018-07-14T04:44:49.356Z,76.58
2018-07-14T04:47:18.458Z,76.77
2018-07-14T04:49:47.552Z,76.33
2018-07-14T04:52:16.678Z,76.42
2018-07-14T04:54:45.737Z,76.09
2018-07-14T04:57:14.815Z,76.06
2018-07-14T04:59:43.919Z,76.03
2018-07-14T05:02:13.053Z,76.52
2018-07-14T05:04:42.139Z,76.06
2018-07-14T05:07:11.208Z,76.37
2018-07-14T05:09:40.326Z,76.09
2018-07-14T05:12:09.574Z,76.06
2018-07-14T05:14:38.637Z,76.49
2018-07-14T05:17:07.715Z,76.36
2018-07-14T05:19:37.085Z,75.90
2018-07-14T05:22:08.049Z,75.98
2018-07-14T05:24:37.144Z,75.86
2018-07-14T05:27:06.615Z,75.68
2018-07-14T05:29:35.695Z,75.38
2018-07-14T05:32:04.846Z,75.98
2018-07-14T05:34:33.931Z,75.78
2018-07-14T05:37:02.992Z,74.86
2018-07-14T05:39:32.101Z,74.82
2018-07-14T05:42:01.158Z,74.59
2018-07-14T05:44:30.306Z,74.71
2018-07-14T05:46:59.376Z,74.77
2018-07-14T05:49:28.524Z,74.86
2018-07-14T05:51:57.755Z,74.02
2018-07-14T05:54:26.816Z,73.99
2018-07-14T05:56:55.907Z,73.56
2018-07-14T05:59:25.022Z,73.59
2018-07-14T06:01:54.130Z,73.10
2018-07-14T06:04:23.193Z,72.62
2018-07-14T06:06:52.308Z,71.85
2018-07-14T06:09:21.381Z,72.35
2018-07-14T06:11:50.464Z,71.96
2018-07-14T06:14:19.792Z,71.84
2018-07-14T06:16:48.879Z,72.06
2018-07-14T06:19:17.950Z,71.81
2018-07-14T06:21:47.071Z,71.33
2018-07-14T06:24:16.131Z,70.62
2018-07-14T06:26:45.233Z,70.74
2018-07-14T06:29:14.332Z,70.70
2018-07-14T06:31:43.415Z,71.04
2018-07-14T06:34:12.565Z,71.09
2018-07-14T06:36:41.985Z,71.05
2018-07-14T06:39:11.240Z,70.32
2018-07-14T06:41:40.379Z,70.06
2018-07-14T06:44:09.472Z,69.79
2018-07-14T06:46:38.562Z,69.15
2018-07-14T06:49:07.674Z,69.65
2018-07-14T06:51:36.800Z,68.72
2018-07-14T06:54:06.034Z,68.64
2018-07-14T06:56:35.131Z,66.79
2018-07-14T06:59:04.244Z,66.04
2018-07-14T07:01:33.349Z,66.67
2018-07-14T07:04:03.183Z,67.03
2018-07-14T07:06:32.358Z,67.18
2018-07-14T07:09:01.437Z,67.17
2018-07-14T07:11:31.989Z,67.31
2018-07-14T07:14:01.058Z,67.57
2018-07-14T07:16:31.055Z,67.71
2018-07-14T07:19:00.350Z,67.35
2018-07-14T07:21:29.526Z,66.93
2018-07-14T07:23:59.532Z,66.71
2018-07-14T07:26:28.660Z,66.85
2018-07-14T07:28:57.755Z,66.52
2018-07-14T07:31:26.933Z,65.76
2018-07-14T07:33:56.032Z,65.72
2018-07-14T07:36:25.108Z,65.33
2018-07-14T07:38:54.209Z,64.83
2018-07-14T07:41:24.197Z,64.99
2018-07-14T07:43:53.449Z,65.20
2018-07-14T07:46:22.514Z,65.14
2018-07-14T07:48:51.634Z,65.40
2018-07-14T07:51:21.523Z,64.65
2018-07-14T07:53:50.620Z,64.43
2018-07-14T07:56:19.696Z,64.61
2018-07-14T07:58:49.419Z,64.60
2018-07-14T08:01:18.533Z,64.40
2018-07-14T08:03:47.599Z,64.82
2018-07-14T08:06:17.278Z,65.82
2018-07-14T08:08:46.396Z,65.95
2018-07-14T08:11:16.366Z,65.23
2018-07-14T08:13:45.455Z,65.24
2018-07-14T08:16:15.198Z,64.82
2018-07-14T08:18:44.299Z,64.31
2018-07-14T08:21:13.341Z,63.95
2018-07-14T08:23:42.462Z,63.42
2018-07-14T08:26:11.552Z,64.00
2018-07-14T08:28:40.652Z,63.38
2018-07-14T08:31:09.760Z,62.96
2018-07-14T08:33:38.864Z,62.61
2018-07-14T08:36:07.992Z,62.02
2018-07-14T08:38:37.067Z,62.29
2018-07-14T08:41:06.573Z,62.50
2018-07-14T08:43:35.696Z,62.20
2018-07-14T08:46:04.834Z,62.14
2018-07-14T08:48:33.900Z,60.73
2018-07-14T08:51:03.049Z,59.76
2018-07-14T08:53:32.096Z,59.82
2018-07-14T08:56:01.210Z,59.83
2018-07-14T08:58:30.518Z,59.46
2018-07-14T09:01:00.492Z,59.18
2018-07-14T09:03:29.648Z,58.72
2018-07-14T09:05:58.766Z,58.38
2018-07-14T09:08:27.894Z,58.83
2018-07-14T09:10:57.024Z,58.20
2018-07-14T09:13:26.100Z,58.26
2018-07-14T09:15:55.217Z,58.39
2018-07-14T09:18:24.465Z,58.37
2018-07-14T09:20:53.584Z,58.08
2018-07-14T09:23:22.680Z,57.73
2018-07-14T09:25:51.811Z,57.96
2018-07-14T09:28:20.894Z,57.54
2018-07-14T09:30:50.042Z,57.02
2018-07-14T09:33:19.244Z,56.85
2018-07-14T09:35:48.651Z,57.29
2018-07-14T09:38:17.795Z,57.18
2018-07-14T09:40:46.865Z,56.82
2018-07-14T09:43:15.989Z,56.07
2018-07-14T09:45:45.108Z,55.28
2018-07-14T09:48:14.259Z,55.27
2018-07-14T09:50:43.624Z,55.35
2018-07-14T09:53:12.739Z,54.89
2018-07-14T09:55:41.837Z,54.48
2018-07-14T09:58:10.944Z,54.22
2018-07-14T10:01:11.394Z,54.23
2018-07-14T10:03:40.695Z,54.36
2018-07-14T10:06:09.779Z,53.92
2018-07-14T10:08:39.225Z,54.41
2018-07-14T10:11:08.317Z,54.40
2018-07-14T10:13:37.430Z,54.33
2018-07-14T10:16:06.525Z,53.62
2018-07-14T10:18:35.717Z,52.29
2018-07-14T10:21:04.848Z,53.41
2018-07-14T10:23:33.969Z,52.52
2018-07-14T10:26:03.023Z,52.20
2018-07-14T10:28:32.151Z,51.86
2018-07-14T10:31:01.300Z,52.17
2018-07-14T10:33:30.389Z,52.16
2018-07-14T10:35:59.588Z,52.16
2018-07-14T10:38:28.698Z,51.80
2018-07-14T10:40:57.841Z,51.97
2018-07-14T10:43:26.911Z,51.10
2018-07-14T10:45:56.045Z,50.26
2018-07-14T10:48:25.177Z,49.95
2018-07-14T10:50:54.264Z,50.41
2018-07-14T10:53:23.408Z,50.37
2018-07-14T10:55:52.484Z,49.34
2018-07-14T10:58:21.598Z,49.35
2018-07-14T11:00:50.733Z,50.00
2018-07-14T11:03:19.848Z,50.31
2018-07-14T11:05:48.935Z,50.00
2018-07-14T11:08:18.022Z,49.63
2018-07-14T11:10:47.082Z,48.94
2018-07-14T11:13:16.222Z,49.26
2018-07-14T11:15:45.284Z,49.70
2018-07-14T11:18:14.357Z,49.51
2018-07-14T11:20:43.449Z,49.21
2018-07-14T11:23:12.532Z,48.53
2018-07-14T11:25:41.640Z,48.65
2018-07-14T11:28:10.760Z,48.75
2018-07-14T11:30:39.921Z,48.08
2018-07-14T11:33:09.014Z,47.34
2018-07-14T11:35:38.152Z,46.67
2018-07-14T11:38:07.278Z,46.76
2018-07-14T11:40:36.387Z,45.48
2018-07-14T11:43:05.813Z,45.11
2018-07-14T11:45:34.894Z,44.79
2018-07-14T11:48:04.056Z,45.06
2018-07-14T11:50:33.143Z,44.50
2018-07-14T11:53:02.293Z,43.77
2018-07-14T11:55:31.360Z,42.87
2018-07-14T11:58:00.552Z,41.34
2018-07-14T12:00:29.669Z,40.69
2018-07-14T12:02:58.713Z,39.13
2018-07-14T12:05:27.822Z,37.28
2018-07-14T12:07:56.869Z,36.94
2018-07-14T12:10:25.963Z,37.19
2018-07-14T12:12:55.096Z,36.51
2018-07-14T12:15:24.199Z,36.20
2018-07-14T12:17:53.295Z,36.44
2018-07-14T12:20:22.671Z,34.98
2018-07-14T12:22:51.814Z,35.39
2018-07-14T12:25:20.907Z,34.39
2018-07-14T12:27:50.045Z,33.96
2018-07-14T12:30:19.212Z,34.19
2018-07-14T12:32:48.280Z,33.09
2018-07-14T12:35:17.347Z,31.69
2018-07-14T12:37:46.456Z,32.77
2018-07-14T12:40:15.547Z,33.43
2018-07-14T12:42:44.620Z,31.49
2018-07-14T12:45:13.718Z,31.35
2018-07-14T12:47:42.781Z,32.05
2018-07-14T12:50:11.963Z,32.23
2018-07-14T12:52:41.037Z,31.01
2018-07-14T12:55:10.121Z,31.10
2018-07-14T12:57:39.221Z,30.23
2018-07-14T13:00:09.041Z,29.46
2018-07-14T13:02:38.528Z,29.86
2018-07-14T13:05:08.021Z,29.32
2018-07-14T13:07:37.216Z,29.69
2018-07-14T13:10:07.410Z,29.55
2018-07-14T13:12:36.810Z,29.93
2018-07-14T13:15:06.359Z,29.70
2018-07-14T13:17:35.613Z,29.95
2018-07-14T13:20:04.881Z,28.56
2018-07-14T13:22:33.980Z,28.64
2018-07-14T13:25:03.062Z,27.61
2018-07-14T13:27:32.177Z,27.23
2018-07-14T13:30:01.279Z,27.31
2018-07-14T13:32:30.407Z,26.66
2018-07-14T13:34:59.462Z,26.03
2018-07-14T13:37:28.525Z,25.33
2018-07-14T13:39:57.820Z,25.08
2018-07-14T13:42:26.869Z,25.22
2018-07-14T13:44:55.991Z,25.32
2018-07-14T13:47:25.087Z,25.08
2018-07-14T13:49:54.168Z,24.53
2018-07-14T13:52:23.433Z,25.02
2018-07-14T13:54:52.544Z,25.23
2018-07-14T13:57:21.621Z,23.43
2018-07-14T13:59:50.683Z,23.86
2018-07-14T14:02:19.831Z,23.93
2018-07-14T14:04:48.926Z,24.39
2018-07-14T14:07:18.054Z,25.16
2018-07-14T14:09:47.145Z,24.80
2018-07-14T14:12:16.204Z,25.11
2018-07-14T14:14:45.297Z,24.58
2018-07-14T14:17:14.481Z,24.01
2018-07-14T14:19:43.588Z,23.29
2018-07-14T14:22:12.688Z,23.43
2018-07-14T14:24:41.791Z,23.24
2018-07-14T14:27:10.915Z,23.78
2018-07-14T14:29:40.387Z,23.71
2018-07-14T14:32:09.467Z,23.11
2018-07-14T14:34:38.524Z,22.09
2018-07-14T14:37:07.744Z,23.16
2018-07-14T14:39:36.802Z,23.18
2018-07-14T14:42:06.874Z,22.84
2018-07-14T14:44:35.917Z,23.32
2018-07-14T14:47:05.088Z,23.89
2018-07-14T14:49:34.153Z,23.50
2018-07-14T14:52:03.282Z,23.33
2018-07-14T14:54:32.372Z,22.49
2018-07-14T14:57:01.508Z,22.83
2018-07-14T14:59:31.380Z,22.01
2018-07-14T15:02:00.586Z,21.73
2018-07-14T15:04:29.791Z,21.11
2018-07-14T15:06:59.063Z,21.92
2018-07-14T15:09:28.229Z,21.44
2018-07-14T15:11:57.353Z,22.77
2018-07-14T15:14:26.501Z,22.83
2018-07-14T15:16:55.636Z,23.55
2018-07-14T15:19:24.748Z,22.88
2018-07-14T15:21:53.835Z,23.18
2018-07-14T15:24:22.919Z,23.24
2018-07-14T15:26:51.992Z,22.87
2018-07-14T15:29:21.134Z,23.50
2018-07-14T15:31:50.170Z,23.00
2018-07-14T15:34:19.239Z,22.87
2018-07-14T15:36:48.379Z,23.46
2018-07-14T15:39:17.487Z,23.75
2018-07-14T15:41:46.531Z,23.97
2018-07-14T15:44:15.615Z,24.73
2018-07-14T15:46:44.728Z,24.67
2018-07-14T15:49:13.807Z,24.36
2018-07-14T15:51:42.946Z,24.18
2018-07-14T15:54:12.053Z,23.50
2018-07-14T15:56:41.172Z,24.13
2018-07-14T15:59:10.249Z,23.50
2018-07-14T16:01:39.344Z,23.70
2018-07-14T16:04:08.416Z,24.13
2018-07-14T16:06:37.507Z,23.99
2018-07-14T16:09:07.411Z,24.64
2018-07-14T16:11:36.573Z,24.74
2018-07-14T16:14:05.691Z,24.86
2018-07-14T16:16:34.786Z,25.38
2018-07-14T16:19:03.943Z,25.64
2018-07-14T16:21:33.019Z,26.51
2018-07-14T16:24:02.088Z,26.97
2018-07-14T16:26:31.365Z,27.21
2018-07-14T16:29:00.430Z,27.11
2018-07-14T16:31:29.535Z,27.16
2018-07-14T16:33:58.596Z,26.80
2018-07-14T16:36:27.715Z,27.83
2018-07-14T16:38:56.813Z,27.92
2018-07-14T16:41:26.589Z,28.00
2018-07-14T16:43:55.690Z,27.48
2018-07-14T16:46:25.946Z,28.12
2018-07-14T16:48:55.089Z,28.00
2018-07-14T16:51:24.215Z,28.37
2018-07-14T16:53:53.317Z,27.18
2018-07-14T16:56:22.442Z,27.27
2018-07-14T16:58:51.571Z,26.72
2018-07-14T17:01:20.645Z,27.44
2018-07-14T17:03:49.742Z,27.95
2018-07-14T17:06:18.841Z,28.83
2018-07-14T17:08:47.925Z,29.00
2018-07-14T17:11:17.053Z,28.45
2018-07-14T17:13:46.121Z,28.91
2018-07-14T17:16:15.194Z,29.89
2018-07-14T17:18:44.313Z,30.33
2018-07-14T17:21:13.390Z,30.63
2018-07-14T17:23:42.463Z,30.18
2018-07-14T17:26:11.503Z,30.53
2018-07-14T17:28:40.650Z,30.44
2018-07-14T17:31:09.779Z,31.81
2018-07-14T17:33:38.868Z,31.83
2018-07-14T17:36:07.955Z,31.57
2018-07-14T17:38:37.064Z,31.74
2018-07-14T17:41:06.142Z,31.88
2018-07-14T17:43:35.210Z,32.66
2018-07-14T17:46:04.292Z,32.65
2018-07-14T17:48:33.371Z,32.67
2018-07-14T17:51:02.479Z,32.56
2018-07-14T17:53:31.536Z,32.42
2018-07-14T17:56:00.621Z,32.63
2018-07-14T17:58:29.793Z,32.73
2018-07-14T18:00:58.902Z,32.92
2018-07-14T18:03:27.953Z,32.87
2018-07-14T18:05:57.059Z,32.89
2018-07-14T18:08:26.111Z,32.74
2018-07-14T18:10:55.159Z,33.05
2018-07-14T18:13:24.261Z,32.63
2018-07-14T18:15:53.495Z,32.90
2018-07-14T18:18:22.596Z,33.43
2018-07-14T18:20:51.709Z,33.07
2018-07-14T18:23:20.760Z,33.42
2018-07-14T18:25:49.893Z,33.10
2018-07-14T18:28:18.946Z,33.28
2018-07-14T18:30:48.014Z,32.90
2018-07-14T18:33:17.123Z,33.18
2018-07-14T18:35:46.302Z,33.28
2018-07-14T18:38:15.376Z,33.02
2018-07-14T18:40:44.530Z,33.51
2018-07-14T18:43:13.598Z,33.72
2018-07-14T18:45:42.804Z,33.82
2018-07-14T18:48:11.869Z,34.30
2018-07-14T18:50:41.010Z,35.14
2018-07-14T18:53:10.181Z,35.00
2018-07-14T18:55:39.401Z,36.28
2018-07-14T18:58:08.583Z,35.76
2018-07-14T19:00:37.926Z,35.00
2018-07-14T19:03:07.304Z,35.21
2018-07-14T19:05:37.078Z,35.16
2018-07-14T19:08:06.626Z,35.21
2018-07-14T19:10:35.856Z,34.75
2018-07-14T19:13:05.101Z,34.36
2018-07-14T19:15:34.528Z,34.31
2018-07-14T19:18:03.831Z,34.55
2018-07-14T19:20:32.974Z,34.37
2018-07-14T19:23:02.107Z,35.11
2018-07-14T19:25:31.140Z,35.10
2018-07-14T19:28:00.224Z,35.32
2018-07-14T19:30:29.351Z,35.17
2018-07-14T19:32:58.445Z,35.77
2018-07-14T19:35:27.565Z,35.23
2018-07-14T19:37:56.636Z,35.68
2018-07-14T19:40:25.713Z,36.05
2018-07-14T19:42:54.806Z,36.35
2018-07-14T19:45:23.892Z,36.30
2018-07-14T19:47:53.273Z,36.05
2018-07-14T19:50:22.414Z,36.55
2018-07-14T19:52:52.163Z,36.44
2018-07-14T19:55:21.276Z,36.87
2018-07-14T19:57:50.360Z,37.01
2018-07-14T20:00:19.412Z,37.34
2018-07-14T20:02:50.422Z,37.44
2018-07-14T20:05:19.520Z,37.91
2018-07-14T20:07:49.682Z,37.78
2018-07-14T20:10:18.709Z,37.78
2018-07-14T20:12:47.892Z,38.01
2018-07-14T20:15:16.995Z,37.83
2018-07-14T20:17:46.101Z,38.23
2018-07-14T20:20:15.203Z,38.66
2018-07-14T20:22:44.237Z,38.64
2018-07-14T20:25:13.314Z,38.70
2018-07-14T20:27:42.378Z,38.59
2018-07-14T20:30:11.524Z,38.97
2018-07-14T20:32:40.549Z,39.38
2018-07-14T20:35:09.788Z,39.82
2018-07-14T20:37:38.861Z,39.85
2018-07-14T20:40:07.976Z,39.56
2018-07-14T20:42:37.023Z,39.65
2018-07-14T20:45:06.187Z,39.72
2018-07-14T20:47:35.395Z,40.09
2018-07-14T20:50:04.645Z,39.91
2018-07-14T20:52:33.725Z,40.39
2018-07-14T20:55:03.980Z,40.40
2018-07-14T20:57:33.073Z,40.39
2018-07-14T21:00:02.171Z,41.07
2018-07-14T21:02:31.298Z,41.04
2018-07-14T21:05:00.781Z,40.99
2018-07-14T21:07:29.923Z,41.28
2018-07-14T21:10:00.766Z,41.31
2018-07-14T21:32:04.999Z,43.35
2018-07-14T21:34:34.083Z,43.56
2018-07-14T21:37:03.158Z,43.66
2018-07-14T21:39:32.235Z,43.50
2018-07-14T21:42:01.286Z,44.01
2018-07-14T21:44:30.509Z,44.10
2018-07-14T21:46:59.570Z,44.12
2018-07-14T21:49:28.667Z,44.26
2018-07-14T21:51:57.739Z,44.38
2018-07-14T21:54:26.822Z,44.28
2018-07-14T21:56:55.931Z,44.85
2018-07-14T21:59:25.019Z,45.00
2018-07-14T22:01:54.147Z,45.18
2018-07-14T22:04:23.173Z,45.21
2018-07-14T22:06:52.512Z,45.19
2018-07-14T22:09:21.586Z,45.41
2018-07-14T22:11:50.713Z,45.49
2018-07-14T22:14:19.794Z,45.54
2018-07-14T22:16:48.838Z,45.85
2018-07-14T22:19:17.923Z,45.83
2018-07-14T22:21:47.000Z,46.03
2018-07-14T22:24:16.133Z,46.07
2018-07-14T22:26:45.171Z,46.34
2018-07-14T22:29:14.262Z,46.31
2018-07-14T22:31:43.351Z,46.71
2018-07-14T22:34:12.411Z,46.77
2018-07-14T22:36:43.076Z,47.23
2018-07-14T22:39:12.122Z,47.07
2018-07-14T22:41:46.957Z,47.10
2018-07-14T22:44:16.245Z,47.24
2018-07-14T22:46:45.293Z,48.43
2018-07-14T22:49:14.376Z,47.44
2018-07-14T22:51:43.449Z,47.25
2018-07-14T22:54:13.025Z,47.01
2018-07-14T22:56:42.094Z,47.61
2018-07-14T22:59:11.149Z,47.15
2018-07-14T23:01:40.238Z,47.56
2018-07-14T23:04:09.339Z,47.65
2018-07-14T23:06:38.371Z,47.68
2018-07-14T23:09:07.894Z,47.94
2018-07-14T23:11:37.157Z,48.27
2018-07-14T23:14:06.254Z,48.11
2018-07-14T23:16:35.328Z,48.20
2018-07-14T23:19:04.411Z,48.62
2018-07-14T23:21:33.533Z,48.85
2018-07-14T23:24:02.620Z,48.87
2018-07-14T23:26:31.691Z,48.76
2018-07-14T23:29:00.772Z,49.09
2018-07-14T23:31:29.855Z,49.60
2018-07-14T23:33:58.919Z,49.78
2018-07-14T23:36:27.996Z,49.75
2018-07-14T23:38:57.067Z,50.05
2018-07-14T23:41:26.140Z,50.13
2018-07-14T23:43:55.272Z,50.36
2018-07-14T23:46:24.523Z,50.52
2018-07-14T23:48:53.616Z,50.68
2018-07-14T23:51:22.659Z,50.94
2018-07-14T23:53:51.736Z,50.88
2018-07-14T23:56:20.863Z,51.49
2018-07-14T23:58:49.916Z,51.35
